Los Angeles, California
Traffic Map
Current Weather Conditions
Los Angeles, California
Broken Clouds
Broken Clouds
61°
Feels Like: 61°
Wind Chill: 61° Ceiling: 2500
Heat Index: 61° Visibility: 10mi
Dew Point: 51° Wind: 0mph
Humidity: 70% Direction: ° ()
Pressure: 30.04in Gusts: 0mph
Raw Report DataKCQT 240500Z AUTO 00000KT 10SM BKN025 16/11 A3004 RMK AO2 T01610106
Traffic Incident Summary
Active as of:
Severity:
Category:
InformationThere was an issue retrieving the traffic information for this location. Please try a different location or try again shortly.
Advertisements
Track Severe Weather on mobile